sensor_id;sensor_type;location;lat;lon;timestamp;temperature;humidity
16728;DHT22;8482;54.396;18.590;2023-05-10T00:00:52;13.30;73.50
16728;DHT22;8482;54.396;18.590;2023-05-10T00:03:18;13.30;73.90
16728;DHT22;8482;54.396;18.590;2023-05-10T00:05:44;13.20;74.10
16728;DHT22;8482;54.396;18.590;2023-05-10T00:08:10;13.20;74.20
16728;DHT22;8482;54.396;18.590;2023-05-10T00:10:36;13.20;74.50
16728;DHT22;8482;54.396;18.590;2023-05-10T00:13:02;13.10;74.50
16728;DHT22;8482;54.396;18.590;2023-05-10T00:15:28;13.10;74.50
16728;DHT22;8482;54.396;18.590;2023-05-10T00:17:56;13.00;74.60
16728;DHT22;8482;54.396;18.590;2023-05-10T00:20:22;13.00;75.10
16728;DHT22;8482;54.396;18.590;2023-05-10T00:22:48;13.00;75.20
16728;DHT22;8482;54.396;18.590;2023-05-10T00:25:14;12.90;75.20
16728;DHT22;8482;54.396;18.590;2023-05-10T00:27:40;12.90;75.50
16728;DHT22;8482;54.396;18.590;2023-05-10T00:30:06;12.80;75.70
16728;DHT22;8482;54.396;18.590;2023-05-10T00:32:32;12.80;76.00
16728;DHT22;8482;54.396;18.590;2023-05-10T00:34:58;12.70;76.50
16728;DHT22;8482;54.396;18.590;2023-05-10T00:37:24;12.70;77.10
16728;DHT22;8482;54.396;18.590;2023-05-10T00:39:50;12.60;77.60
16728;DHT22;8482;54.396;18.590;2023-05-10T00:42:16;12.50;77.80
16728;DHT22;8482;54.396;18.590;2023-05-10T00:44:41;12.40;78.20
16728;DHT22;8482;54.396;18.590;2023-05-10T00:47:07;12.30;78.80
16728;DHT22;8482;54.396;18.590;2023-05-10T00:49:34;12.30;79.40
16728;DHT22;8482;54.396;18.590;2023-05-10T00:52:01;12.20;80.00
16728;DHT22;8482;54.396;18.590;2023-05-10T00:54:28;12.10;80.60
16728;DHT22;8482;54.396;18.590;2023-05-10T00:56:54;12.00;81.10
16728;DHT22;8482;54.396;18.590;2023-05-10T00:59:22;12.00;81.60
16728;DHT22;8482;54.396;18.590;2023-05-10T01:01:48;11.90;81.60
16728;DHT22;8482;54.396;18.590;2023-05-10T01:04:15;11.80;82.00
16728;DHT22;8482;54.396;18.590;2023-05-10T01:06:41;11.80;82.30
16728;DHT22;8482;54.396;18.590;2023-05-10T01:09:08;11.70;82.60
16728;DHT22;8482;54.396;18.590;2023-05-10T01:11:38;11.70;83.10
16728;DHT22;8482;54.396;18.590;2023-05-10T01:14:05;11.60;83.20
16728;DHT22;8482;54.396;18.590;2023-05-10T01:16:34;11.50;83.50
16728;DHT22;8482;54.396;18.590;2023-05-10T01:19:15;11.50;84.00
16728;DHT22;8482;54.396;18.590;2023-05-10T01:21:49;11.40;84.50
16728;DHT22;8482;54.396;18.590;2023-05-10T01:28:17;11.30;85.40
16728;DHT22;8482;54.396;18.590;2023-05-10T01:34:17;11.20;85.80
16728;DHT22;8482;54.396;18.590;2023-05-10T01:36:58;11.10;85.90
16728;DHT22;8482;54.396;18.590;2023-05-10T01:39:36;11.10;86.40
16728;DHT22;8482;54.396;18.590;2023-05-10T01:42:10;11.00;86.80
16728;DHT22;8482;54.396;18.590;2023-05-10T01:49:55;10.90;88.10
16728;DHT22;8482;54.396;18.590;2023-05-10T01:52:31;10.80;88.10
16728;DHT22;8482;54.396;18.590;2023-05-10T01:55:02;10.80;88.70
16728;DHT22;8482;54.396;18.590;2023-05-10T01:57:33;10.70;89.00
16728;DHT22;8482;54.396;18.590;2023-05-10T02:00:08;10.70;89.40
16728;DHT22;8482;54.396;18.590;2023-05-10T02:02:38;10.70;89.70
16728;DHT22;8482;54.396;18.590;2023-05-10T02:05:08;10.60;90.00
16728;DHT22;8482;54.396;18.590;2023-05-10T02:07:37;10.60;90.30
16728;DHT22;8482;54.396;18.590;2023-05-10T02:10:05;10.60;90.50
16728;DHT22;8482;54.396;18.590;2023-05-10T02:12:41;10.50;90.60
16728;DHT22;8482;54.396;18.590;2023-05-10T02:15:10;10.40;90.70
16728;DHT22;8482;54.396;18.590;2023-05-10T02:17:39;10.40;90.90
16728;DHT22;8482;54.396;18.590;2023-05-10T02:20:08;10.40;91.10
16728;DHT22;8482;54.396;18.590;2023-05-10T02:22:36;10.30;91.20
16728;DHT22;8482;54.396;18.590;2023-05-10T02:25:04;10.20;91.40
16728;DHT22;8482;54.396;18.590;2023-05-10T02:27:34;10.10;91.60
16728;DHT22;8482;54.396;18.590;2023-05-10T02:30:03;10.10;92.10
16728;DHT22;8482;54.396;18.590;2023-05-10T02:32:31;10.00;91.90
16728;DHT22;8482;54.396;18.590;2023-05-10T02:34:58;10.00;92.20
16728;DHT22;8482;54.396;18.590;2023-05-10T02:37:28;9.90;92.30
16728;DHT22;8482;54.396;18.590;2023-05-10T02:39:55;9.90;92.60
16728;DHT22;8482;54.396;18.590;2023-05-10T02:42:25;9.80;92.70
16728;DHT22;8482;54.396;18.590;2023-05-10T02:44:56;9.80;92.80
16728;DHT22;8482;54.396;18.590;2023-05-10T02:47:26;9.80;93.10
16728;DHT22;8482;54.396;18.590;2023-05-10T02:49:53;9.70;93.30
16728;DHT22;8482;54.396;18.590;2023-05-10T02:52:24;9.70;93.50
16728;DHT22;8482;54.396;18.590;2023-05-10T02:55:00;9.70;93.70
16728;DHT22;8482;54.396;18.590;2023-05-10T02:57:32;9.60;93.80
16728;DHT22;8482;54.396;18.590;2023-05-10T02:59:59;9.60;94.00
16728;DHT22;8482;54.396;18.590;2023-05-10T03:02:26;9.60;94.10
16728;DHT22;8482;54.396;18.590;2023-05-10T03:04:53;9.50;94.30
16728;DHT22;8482;54.396;18.590;2023-05-10T03:07:19;9.50;94.50
16728;DHT22;8482;54.396;18.590;2023-05-10T03:09:50;9.50;94.70
16728;DHT22;8482;54.396;18.590;2023-05-10T03:18:29;9.40;95.10
16728;DHT22;8482;54.396;18.590;2023-05-10T03:21:04;9.40;95.10
16728;DHT22;8482;54.396;18.590;2023-05-10T03:24:07;9.40;95.10
16728;DHT22;8482;54.396;18.590;2023-05-10T03:26:30;9.40;95.40
16728;DHT22;8482;54.396;18.590;2023-05-10T03:28:57;9.40;95.40
16728;DHT22;8482;54.396;18.590;2023-05-10T03:31:25;9.40;95.50
16728;DHT22;8482;54.396;18.590;2023-05-10T03:33:52;9.40;95.50
16728;DHT22;8482;54.396;18.590;2023-05-10T03:36:18;9.40;95.50
16728;DHT22;8482;54.396;18.590;2023-05-10T03:38:45;9.40;95.60
16728;DHT22;8482;54.396;18.590;2023-05-10T03:41:11;9.40;95.70
16728;DHT22;8482;54.396;18.590;2023-05-10T03:43:37;9.40;95.80
16728;DHT22;8482;54.396;18.590;2023-05-10T03:46:03;9.50;95.80
16728;DHT22;8482;54.396;18.590;2023-05-10T03:48:30;9.50;95.70
16728;DHT22;8482;54.396;18.590;2023-05-10T03:50:57;9.50;95.50
16728;DHT22;8482;54.396;18.590;2023-05-10T03:53:23;9.60;95.50
16728;DHT22;8482;54.396;18.590;2023-05-10T03:55:50;9.70;95.40
16728;DHT22;8482;54.396;18.590;2023-05-10T03:58:16;9.70;95.30
16728;DHT22;8482;54.396;18.590;2023-05-10T04:00:42;9.80;95.20
16728;DHT22;8482;54.396;18.590;2023-05-10T04:03:13;9.80;95.10
16728;DHT22;8482;54.396;18.590;2023-05-10T04:05:39;9.90;94.50
16728;DHT22;8482;54.396;18.590;2023-05-10T04:08:05;10.00;94.20
16728;DHT22;8482;54.396;18.590;2023-05-10T04:10:32;10.00;94.20
16728;DHT22;8482;54.396;18.590;2023-05-10T04:12:58;10.10;93.60
16728;DHT22;8482;54.396;18.590;2023-05-10T04:15:23;10.20;93.40
16728;DHT22;8482;54.396;18.590;2023-05-10T04:17:50;10.30;93.00
16728;DHT22;8482;54.396;18.590;2023-05-10T04:20:16;10.40;92.50
16728;DHT22;8482;54.396;18.590;2023-05-10T04:22:42;10.40;92.30
16728;DHT22;8482;54.396;18.590;2023-05-10T04:25:08;10.50;91.90
16728;DHT22;8482;54.396;18.590;2023-05-10T04:27:34;10.60;91.60
16728;DHT22;8482;54.396;18.590;2023-05-10T04:30:01;10.70;91.30
16728;DHT22;8482;54.396;18.590;2023-05-10T04:32:27;10.70;90.90
16728;DHT22;8482;54.396;18.590;2023-05-10T04:34:53;10.80;90.80
16728;DHT22;8482;54.396;18.590;2023-05-10T04:37:19;10.90;90.60
16728;DHT22;8482;54.396;18.590;2023-05-10T04:39:46;11.00;90.40
16728;DHT22;8482;54.396;18.590;2023-05-10T04:42:12;11.00;90.20
16728;DHT22;8482;54.396;18.590;2023-05-10T04:44:40;11.10;89.70
16728;DHT22;8482;54.396;18.590;2023-05-10T04:47:06;11.20;89.30
16728;DHT22;8482;54.396;18.590;2023-05-10T04:49:32;11.20;88.50
16728;DHT22;8482;54.396;18.590;2023-05-10T04:51:58;11.30;88.10
16728;DHT22;8482;54.396;18.590;2023-05-10T04:54:24;11.40;87.80
16728;DHT22;8482;54.396;18.590;2023-05-10T04:56:50;11.40;87.20
16728;DHT22;8482;54.396;18.590;2023-05-10T04:59:15;11.50;86.60
16728;DHT22;8482;54.396;18.590;2023-05-10T05:01:41;11.50;86.20
16728;DHT22;8482;54.396;18.590;2023-05-10T05:04:07;11.60;86.00
16728;DHT22;8482;54.396;18.590;2023-05-10T05:06:33;11.70;85.50
16728;DHT22;8482;54.396;18.590;2023-05-10T05:08:59;11.70;85.50
16728;DHT22;8482;54.396;18.590;2023-05-10T05:11:25;11.70;85.40
16728;DHT22;8482;54.396;18.590;2023-05-10T05:13:51;11.80;85.00
16728;DHT22;8482;54.396;18.590;2023-05-10T05:16:17;11.80;84.30
16728;DHT22;8482;54.396;18.590;2023-05-10T05:18:43;11.90;84.00
16728;DHT22;8482;54.396;18.590;2023-05-10T05:21:15;11.90;83.40
16728;DHT22;8482;54.396;18.590;2023-05-10T05:23:42;12.00;83.20
16728;DHT22;8482;54.396;18.590;2023-05-10T05:26:08;12.00;82.80
16728;DHT22;8482;54.396;18.590;2023-05-10T05:28:34;12.00;82.70
16728;DHT22;8482;54.396;18.590;2023-05-10T05:31:03;12.10;82.70
16728;DHT22;8482;54.396;18.590;2023-05-10T05:33:30;12.10;82.50
16728;DHT22;8482;54.396;18.590;2023-05-10T05:35:56;12.20;82.10
16728;DHT22;8482;54.396;18.590;2023-05-10T05:38:22;12.20;82.00
16728;DHT22;8482;54.396;18.590;2023-05-10T05:40:49;12.20;81.80
16728;DHT22;8482;54.396;18.590;2023-05-10T05:43:14;12.30;81.70
16728;DHT22;8482;54.396;18.590;2023-05-10T05:45:40;12.30;81.60
16728;DHT22;8482;54.396;18.590;2023-05-10T05:48:06;12.40;81.40
16728;DHT22;8482;54.396;18.590;2023-05-10T05:50:32;12.40;81.80
16728;DHT22;8482;54.396;18.590;2023-05-10T05:52:58;12.40;82.00
16728;DHT22;8482;54.396;18.590;2023-05-10T05:55:23;12.50;81.90
16728;DHT22;8482;54.396;18.590;2023-05-10T05:57:51;12.50;81.80
16728;DHT22;8482;54.396;18.590;2023-05-10T06:00:17;12.60;81.80
16728;DHT22;8482;54.396;18.590;2023-05-10T06:02:43;12.60;81.60
16728;DHT22;8482;54.396;18.590;2023-05-10T06:05:09;12.60;81.80
16728;DHT22;8482;54.396;18.590;2023-05-10T06:07:35;12.70;81.70
16728;DHT22;8482;54.396;18.590;2023-05-10T06:10:00;12.70;82.20
16728;DHT22;8482;54.396;18.590;2023-05-10T06:12:26;12.70;81.90
16728;DHT22;8482;54.396;18.590;2023-05-10T06:14:52;12.80;82.10
16728;DHT22;8482;54.396;18.590;2023-05-10T06:17:18;12.80;82.00
16728;DHT22;8482;54.396;18.590;2023-05-10T06:19:44;12.90;81.80
16728;DHT22;8482;54.396;18.590;2023-05-10T06:22:09;12.90;81.30
16728;DHT22;8482;54.396;18.590;2023-05-10T06:24:35;13.00;81.80
16728;DHT22;8482;54.396;18.590;2023-05-10T06:27:01;13.00;82.00
16728;DHT22;8482;54.396;18.590;2023-05-10T06:29:27;13.10;82.00
16728;DHT22;8482;54.396;18.590;2023-05-10T06:31:53;13.10;82.10
16728;DHT22;8482;54.396;18.590;2023-05-10T06:34:19;13.20;82.10
16728;DHT22;8482;54.396;18.590;2023-05-10T06:36:45;13.20;82.00
16728;DHT22;8482;54.396;18.590;2023-05-10T06:39:11;13.30;81.90
16728;DHT22;8482;54.396;18.590;2023-05-10T06:41:37;13.40;81.60
16728;DHT22;8482;54.396;18.590;2023-05-10T06:44:03;13.40;81.50
16728;DHT22;8482;54.396;18.590;2023-05-10T06:46:29;13.50;81.10
16728;DHT22;8482;54.396;18.590;2023-05-10T06:48:55;13.50;80.80
16728;DHT22;8482;54.396;18.590;2023-05-10T06:51:21;13.60;80.90
16728;DHT22;8482;54.396;18.590;2023-05-10T06:53:46;13.60;80.40
16728;DHT22;8482;54.396;18.590;2023-05-10T06:56:12;13.70;80.20
16728;DHT22;8482;54.396;18.590;2023-05-10T06:58:38;13.70;80.30
16728;DHT22;8482;54.396;18.590;2023-05-10T07:01:05;13.80;80.20
16728;DHT22;8482;54.396;18.590;2023-05-10T07:03:31;13.80;79.80
16728;DHT22;8482;54.396;18.590;2023-05-10T07:06:01;14.00;79.60
16728;DHT22;8482;54.396;18.590;2023-05-10T07:08:29;14.00;79.40
16728;DHT22;8482;54.396;18.590;2023-05-10T07:11:03;14.10;78.70
16728;DHT22;8482;54.396;18.590;2023-05-10T07:13:31;14.10;78.50
16728;DHT22;8482;54.396;18.590;2023-05-10T07:15:58;14.20;78.50
16728;DHT22;8482;54.396;18.590;2023-05-10T07:18:25;14.30;78.30
16728;DHT22;8482;54.396;18.590;2023-05-10T07:20:51;14.30;77.60
16728;DHT22;8482;54.396;18.590;2023-05-10T07:23:17;14.40;77.40
16728;DHT22;8482;54.396;18.590;2023-05-10T07:25:50;14.40;77.20
16728;DHT22;8482;54.396;18.590;2023-05-10T07:28:20;14.50;77.00
16728;DHT22;8482;54.396;18.590;2023-05-10T07:30:46;14.60;76.60
16728;DHT22;8482;54.396;18.590;2023-05-10T07:33:13;14.70;76.30
16728;DHT22;8482;54.396;18.590;2023-05-10T07:35:39;14.80;75.60
16728;DHT22;8482;54.396;18.590;2023-05-10T07:38:05;14.80;74.70
16728;DHT22;8482;54.396;18.590;2023-05-10T07:40:31;14.90;74.10
16728;DHT22;8482;54.396;18.590;2023-05-10T07:42:57;15.00;74.00
16728;DHT22;8482;54.396;18.590;2023-05-10T07:45:23;15.00;73.00
16728;DHT22;8482;54.396;18.590;2023-05-10T07:47:49;15.10;72.70
16728;DHT22;8482;54.396;18.590;2023-05-10T07:50:15;15.10;72.80
16728;DHT22;8482;54.396;18.590;2023-05-10T07:52:41;15.20;72.30
16728;DHT22;8482;54.396;18.590;2023-05-10T07:55:08;15.30;72.20
16728;DHT22;8482;54.396;18.590;2023-05-10T07:57:34;15.30;71.60
16728;DHT22;8482;54.396;18.590;2023-05-10T08:00:00;15.40;71.70
16728;DHT22;8482;54.396;18.590;2023-05-10T08:02:26;15.50;71.50
16728;DHT22;8482;54.396;18.590;2023-05-10T08:04:52;15.50;70.80
16728;DHT22;8482;54.396;18.590;2023-05-10T08:07:18;15.60;70.10
16728;DHT22;8482;54.396;18.590;2023-05-10T08:09:44;15.70;69.80
16728;DHT22;8482;54.396;18.590;2023-05-10T08:12:09;15.70;69.50
16728;DHT22;8482;54.396;18.590;2023-05-10T08:14:35;15.90;68.60
16728;DHT22;8482;54.396;18.590;2023-05-10T08:17:04;15.90;66.60
16728;DHT22;8482;54.396;18.590;2023-05-10T08:19:30;16.00;66.30
16728;DHT22;8482;54.396;18.590;2023-05-10T08:21:56;16.10;66.50
16728;DHT22;8482;54.396;18.590;2023-05-10T08:24:22;16.10;66.50
16728;DHT22;8482;54.396;18.590;2023-05-10T08:26:48;16.20;65.80
16728;DHT22;8482;54.396;18.590;2023-05-10T08:29:14;16.20;65.40
16728;DHT22;8482;54.396;18.590;2023-05-10T08:31:41;16.30;65.20
16728;DHT22;8482;54.396;18.590;2023-05-10T08:34:07;16.40;64.50
16728;DHT22;8482;54.396;18.590;2023-05-10T08:36:33;16.50;63.60
16728;DHT22;8482;54.396;18.590;2023-05-10T08:38:58;16.50;62.90
16728;DHT22;8482;54.396;18.590;2023-05-10T08:41:24;16.60;62.10
16728;DHT22;8482;54.396;18.590;2023-05-10T08:43:53;16.60;61.60
16728;DHT22;8482;54.396;18.590;2023-05-10T08:46:22;16.70;61.30
16728;DHT22;8482;54.396;18.590;2023-05-10T08:48:50;16.70;61.40
16728;DHT22;8482;54.396;18.590;2023-05-10T08:51:23;16.80;61.40
16728;DHT22;8482;54.396;18.590;2023-05-10T08:53:53;16.80;61.30
16728;DHT22;8482;54.396;18.590;2023-05-10T08:56:20;16.90;60.60
16728;DHT22;8482;54.396;18.590;2023-05-10T08:58:46;16.90;59.10
16728;DHT22;8482;54.396;18.590;2023-05-10T09:01:13;17.00;59.00
16728;DHT22;8482;54.396;18.590;2023-05-10T09:03:42;17.00;58.90
16728;DHT22;8482;54.396;18.590;2023-05-10T09:06:08;17.10;58.50
16728;DHT22;8482;54.396;18.590;2023-05-10T09:08:34;17.10;58.20
16728;DHT22;8482;54.396;18.590;2023-05-10T09:11:02;17.20;58.30
16728;DHT22;8482;54.396;18.590;2023-05-10T09:13:29;17.20;58.10
16728;DHT22;8482;54.396;18.590;2023-05-10T09:15:56;17.30;58.10
16728;DHT22;8482;54.396;18.590;2023-05-10T09:18:22;17.40;58.00
16728;DHT22;8482;54.396;18.590;2023-05-10T09:20:48;17.40;57.50
16728;DHT22;8482;54.396;18.590;2023-05-10T09:23:14;17.50;57.30
16728;DHT22;8482;54.396;18.590;2023-05-10T09:25:41;17.50;57.50
16728;DHT22;8482;54.396;18.590;2023-05-10T09:28:08;17.60;57.60
16728;DHT22;8482;54.396;18.590;2023-05-10T09:30:37;17.70;57.10
16728;DHT22;8482;54.396;18.590;2023-05-10T09:33:03;17.70;56.30
16728;DHT22;8482;54.396;18.590;2023-05-10T09:35:31;17.80;56.30
16728;DHT22;8482;54.396;18.590;2023-05-10T09:38:03;17.80;56.20
16728;DHT22;8482;54.396;18.590;2023-05-10T09:40:30;17.80;56.30
16728;DHT22;8482;54.396;18.590;2023-05-10T09:43:01;17.90;56.40
16728;DHT22;8482;54.396;18.590;2023-05-10T09:45:33;18.00;56.60
16728;DHT22;8482;54.396;18.590;2023-05-10T09:48:01;18.10;56.60
16728;DHT22;8482;54.396;18.590;2023-05-10T09:50:29;18.10;56.40
16728;DHT22;8482;54.396;18.590;2023-05-10T09:52:58;18.20;55.90
16728;DHT22;8482;54.396;18.590;2023-05-10T09:55:42;18.20;55.10
16728;DHT22;8482;54.396;18.590;2023-05-10T09:58:14;18.30;55.00
16728;DHT22;8482;54.396;18.590;2023-05-10T10:00:42;18.30;54.90
16728;DHT22;8482;54.396;18.590;2023-05-10T10:03:17;18.40;55.10
16728;DHT22;8482;54.396;18.590;2023-05-10T10:05:45;18.40;55.00
16728;DHT22;8482;54.396;18.590;2023-05-10T10:08:12;18.50;54.40
16728;DHT22;8482;54.396;18.590;2023-05-10T10:10:39;18.50;54.50
16728;DHT22;8482;54.396;18.590;2023-05-10T10:13:06;18.60;54.10
16728;DHT22;8482;54.396;18.590;2023-05-10T10:15:34;18.60;53.90
16728;DHT22;8482;54.396;18.590;2023-05-10T10:18:00;18.70;54.20
16728;DHT22;8482;54.396;18.590;2023-05-10T10:20:27;18.70;54.20
16728;DHT22;8482;54.396;18.590;2023-05-10T10:22:53;18.80;54.00
16728;DHT22;8482;54.396;18.590;2023-05-10T10:25:20;18.80;54.20
16728;DHT22;8482;54.396;18.590;2023-05-10T10:35:38;19.00;53.50
16728;DHT22;8482;54.396;18.590;2023-05-10T10:38:07;19.00;52.80
16728;DHT22;8482;54.396;18.590;2023-05-10T10:40:34;19.10;52.90
16728;DHT22;8482;54.396;18.590;2023-05-10T10:43:25;19.10;52.80
16728;DHT22;8482;54.396;18.590;2023-05-10T10:48:38;19.20;53.10
16728;DHT22;8482;54.396;18.590;2023-05-10T10:51:05;19.30;52.90
16728;DHT22;8482;54.396;18.590;2023-05-10T10:53:32;19.40;52.60
16728;DHT22;8482;54.396;18.590;2023-05-10T10:56:07;19.50;52.80
16728;DHT22;8482;54.396;18.590;2023-05-10T10:58:36;19.50;52.70
16728;DHT22;8482;54.396;18.590;2023-05-10T11:03:38;19.80;55.10
16728;DHT22;8482;54.396;18.590;2023-05-10T11:06:04;19.90;54.50
16728;DHT22;8482;54.396;18.590;2023-05-10T11:08:30;20.00;53.80
16728;DHT22;8482;54.396;18.590;2023-05-10T11:13:42;20.10;52.20
16728;DHT22;8482;54.396;18.590;2023-05-10T11:16:18;20.10;51.70
16728;DHT22;8482;54.396;18.590;2023-05-10T11:21:33;20.20;50.60
16728;DHT22;8482;54.396;18.590;2023-05-10T11:24:13;20.30;50.50
16728;DHT22;8482;54.396;18.590;2023-05-10T11:26:41;20.40;50.60
16728;DHT22;8482;54.396;18.590;2023-05-10T11:29:07;20.40;50.70
16728;DHT22;8482;54.396;18.590;2023-05-10T11:31:34;20.40;50.80
16728;DHT22;8482;54.396;18.590;2023-05-10T11:34:01;20.50;50.70
16728;DHT22;8482;54.396;18.590;2023-05-10T11:36:34;20.60;50.40
16728;DHT22;8482;54.396;18.590;2023-05-10T11:39:02;20.60;50.30
16728;DHT22;8482;54.396;18.590;2023-05-10T11:41:31;20.70;50.70
16728;DHT22;8482;54.396;18.590;2023-05-10T11:43:57;20.80;50.70
16728;DHT22;8482;54.396;18.590;2023-05-10T11:46:25;20.90;50.50
16728;DHT22;8482;54.396;18.590;2023-05-10T11:48:55;21.00;50.70
16728;DHT22;8482;54.396;18.590;2023-05-10T11:51:27;21.10;50.60
16728;DHT22;8482;54.396;18.590;2023-05-10T11:53:55;21.20;50.50
16728;DHT22;8482;54.396;18.590;2023-05-10T11:56:22;21.30;49.90
16728;DHT22;8482;54.396;18.590;2023-05-10T11:58:54;21.30;49.50
16728;DHT22;8482;54.396;18.590;2023-05-10T12:01:21;21.40;49.60
16728;DHT22;8482;54.396;18.590;2023-05-10T12:03:50;21.50;49.80
16728;DHT22;8482;54.396;18.590;2023-05-10T12:06:18;21.60;49.70
16728;DHT22;8482;54.396;18.590;2023-05-10T12:08:46;21.70;49.60
16728;DHT22;8482;54.396;18.590;2023-05-10T12:11:13;21.80;49.50
16728;DHT22;8482;54.396;18.590;2023-05-10T12:13:42;21.90;49.30
16728;DHT22;8482;54.396;18.590;2023-05-10T12:16:21;22.00;49.30
16728;DHT22;8482;54.396;18.590;2023-05-10T12:18:52;22.10;49.20
16728;DHT22;8482;54.396;18.590;2023-05-10T12:21:21;22.10;48.80
16728;DHT22;8482;54.396;18.590;2023-05-10T12:23:50;22.20;48.60
16728;DHT22;8482;54.396;18.590;2023-05-10T12:26:26;22.30;48.80
16728;DHT22;8482;54.396;18.590;2023-05-10T12:28:54;22.40;48.80
16728;DHT22;8482;54.396;18.590;2023-05-10T12:31:20;22.50;48.50
16728;DHT22;8482;54.396;18.590;2023-05-10T12:33:46;22.50;48.10
16728;DHT22;8482;54.396;18.590;2023-05-10T12:36:15;22.60;48.10
16728;DHT22;8482;54.396;18.590;2023-05-10T12:38:46;22.70;48.00
16728;DHT22;8482;54.396;18.590;2023-05-10T12:41:18;22.80;47.90
16728;DHT22;8482;54.396;18.590;2023-05-10T12:43:45;22.90;47.60
16728;DHT22;8482;54.396;18.590;2023-05-10T12:46:13;23.00;47.70
16728;DHT22;8482;54.396;18.590;2023-05-10T12:48:41;23.00;47.90
16728;DHT22;8482;54.396;18.590;2023-05-10T12:51:08;23.10;47.40
16728;DHT22;8482;54.396;18.590;2023-05-10T12:53:37;23.20;47.10
16728;DHT22;8482;54.396;18.590;2023-05-10T12:56:04;23.30;47.00
16728;DHT22;8482;54.396;18.590;2023-05-10T12:58:30;23.40;47.00
16728;DHT22;8482;54.396;18.590;2023-05-10T13:00:58;23.50;47.10
16728;DHT22;8482;54.396;18.590;2023-05-10T13:03:25;23.60;46.70
16728;DHT22;8482;54.396;18.590;2023-05-10T13:05:51;23.70;46.70
16728;DHT22;8482;54.396;18.590;2023-05-10T13:08:17;23.80;46.50
16728;DHT22;8482;54.396;18.590;2023-05-10T13:10:44;24.00;46.50
16728;DHT22;8482;54.396;18.590;2023-05-10T13:13:10;24.10;45.70
16728;DHT22;8482;54.396;18.590;2023-05-10T13:15:36;24.20;44.90
16728;DHT22;8482;54.396;18.590;2023-05-10T13:18:02;24.20;45.10
16728;DHT22;8482;54.396;18.590;2023-05-10T13:20:28;24.40;45.20
16728;DHT22;8482;54.396;18.590;2023-05-10T13:22:54;24.50;45.00
16728;DHT22;8482;54.396;18.590;2023-05-10T13:25:20;24.60;44.40
16728;DHT22;8482;54.396;18.590;2023-05-10T13:27:47;24.60;44.20
16728;DHT22;8482;54.396;18.590;2023-05-10T13:30:13;24.70;44.50
16728;DHT22;8482;54.396;18.590;2023-05-10T13:32:39;24.90;44.80
16728;DHT22;8482;54.396;18.590;2023-05-10T13:35:07;25.10;44.50
16728;DHT22;8482;54.396;18.590;2023-05-10T13:37:33;25.20;42.80
16728;DHT22;8482;54.396;18.590;2023-05-10T13:40:03;25.20;42.80
16728;DHT22;8482;54.396;18.590;2023-05-10T13:42:30;25.30;43.10
16728;DHT22;8482;54.396;18.590;2023-05-10T13:44:57;25.30;43.00
16728;DHT22;8482;54.396;18.590;2023-05-10T13:47:23;25.40;42.50
16728;DHT22;8482;54.396;18.590;2023-05-10T13:49:49;25.40;42.80
16728;DHT22;8482;54.396;18.590;2023-05-10T13:52:15;25.50;42.80
16728;DHT22;8482;54.396;18.590;2023-05-10T13:54:41;25.50;42.70
16728;DHT22;8482;54.396;18.590;2023-05-10T13:57:06;25.60;43.70
16728;DHT22;8482;54.396;18.590;2023-05-10T13:59:33;25.60;42.90
16728;DHT22;8482;54.396;18.590;2023-05-10T14:01:59;25.70;43.10
16728;DHT22;8482;54.396;18.590;2023-05-10T14:04:29;25.70;43.20
16728;DHT22;8482;54.396;18.590;2023-05-10T14:06:56;25.80;42.40
16728;DHT22;8482;54.396;18.590;2023-05-10T14:09:22;25.80;42.60
16728;DHT22;8482;54.396;18.590;2023-05-10T14:11:48;25.90;42.40
16728;DHT22;8482;54.396;18.590;2023-05-10T14:14:14;25.90;41.90
16728;DHT22;8482;54.396;18.590;2023-05-10T14:16:44;26.00;42.00
16728;DHT22;8482;54.396;18.590;2023-05-10T14:19:11;26.00;42.00
16728;DHT22;8482;54.396;18.590;2023-05-10T14:21:37;26.00;42.00
16728;DHT22;8482;54.396;18.590;2023-05-10T14:24:04;26.10;41.90
16728;DHT22;8482;54.396;18.590;2023-05-10T14:26:30;26.00;41.60
16728;DHT22;8482;54.396;18.590;2023-05-10T14:28:56;26.10;42.00
16728;DHT22;8482;54.396;18.590;2023-05-10T14:31:22;26.10;41.10
16728;DHT22;8482;54.396;18.590;2023-05-10T14:33:50;26.20;41.50
16728;DHT22;8482;54.396;18.590;2023-05-10T14:36:17;26.30;41.50
16728;DHT22;8482;54.396;18.590;2023-05-10T14:38:43;26.40;41.60
16728;DHT22;8482;54.396;18.590;2023-05-10T14:41:10;26.50;41.90
16728;DHT22;8482;54.396;18.590;2023-05-10T14:43:39;26.60;41.80
16728;DHT22;8482;54.396;18.590;2023-05-10T14:46:06;26.70;41.30
16728;DHT22;8482;54.396;18.590;2023-05-10T14:48:32;26.70;41.10
16728;DHT22;8482;54.396;18.590;2023-05-10T14:50:58;26.80;41.50
16728;DHT22;8482;54.396;18.590;2023-05-10T14:53:24;27.00;41.50
16728;DHT22;8482;54.396;18.590;2023-05-10T14:55:50;27.10;41.10
16728;DHT22;8482;54.396;18.590;2023-05-10T14:58:16;27.20;40.20
16728;DHT22;8482;54.396;18.590;2023-05-10T15:00:43;27.30;39.70
16728;DHT22;8482;54.396;18.590;2023-05-10T15:03:09;27.30;39.90
16728;DHT22;8482;54.396;18.590;2023-05-10T15:05:35;27.30;39.60
16728;DHT22;8482;54.396;18.590;2023-05-10T15:08:03;27.40;39.60
16728;DHT22;8482;54.396;18.590;2023-05-10T15:10:30;27.30;39.70
16728;DHT22;8482;54.396;18.590;2023-05-10T15:12:56;27.30;39.80
16728;DHT22;8482;54.396;18.590;2023-05-10T15:15:22;27.30;39.90
16728;DHT22;8482;54.396;18.590;2023-05-10T15:17:48;27.40;39.90
16728;DHT22;8482;54.396;18.590;2023-05-10T15:20:16;27.40;39.70
16728;DHT22;8482;54.396;18.590;2023-05-10T15:22:42;27.30;39.70
16728;DHT22;8482;54.396;18.590;2023-05-10T15:25:09;27.30;39.90
16728;DHT22;8482;54.396;18.590;2023-05-10T15:27:36;27.30;39.80
16728;DHT22;8482;54.396;18.590;2023-05-10T15:30:02;27.30;39.40
16728;DHT22;8482;54.396;18.590;2023-05-10T15:32:28;27.20;39.50
16728;DHT22;8482;54.396;18.590;2023-05-10T15:34:56;27.20;40.00
16728;DHT22;8482;54.396;18.590;2023-05-10T15:37:23;27.20;39.90
16728;DHT22;8482;54.396;18.590;2023-05-10T15:39:49;27.20;40.70
16728;DHT22;8482;54.396;18.590;2023-05-10T15:42:15;27.10;39.90
16728;DHT22;8482;54.396;18.590;2023-05-10T15:44:41;27.10;39.60
16728;DHT22;8482;54.396;18.590;2023-05-10T15:47:09;27.00;40.30
16728;DHT22;8482;54.396;18.590;2023-05-10T15:49:35;27.00;40.70
16728;DHT22;8482;54.396;18.590;2023-05-10T15:52:01;27.00;39.70
16728;DHT22;8482;54.396;18.590;2023-05-10T15:54:27;26.90;39.40
16728;DHT22;8482;54.396;18.590;2023-05-10T15:56:53;26.80;39.60
16728;DHT22;8482;54.396;18.590;2023-05-10T15:59:19;26.70;39.90
16728;DHT22;8482;54.396;18.590;2023-05-10T16:01:45;26.60;40.10
16728;DHT22;8482;54.396;18.590;2023-05-10T16:04:12;26.50;40.10
16728;DHT22;8482;54.396;18.590;2023-05-10T16:06:38;26.50;40.70
16728;DHT22;8482;54.396;18.590;2023-05-10T16:09:04;26.40;40.40
16728;DHT22;8482;54.396;18.590;2023-05-10T16:11:30;26.30;40.50